createdAt,value
2022-10-19T00:01:17.236Z,14.10
2022-10-19T00:06:33.952Z,16.20
2022-10-19T00:09:13.748Z,17.00
2022-10-19T00:11:43.741Z,19.50
2022-10-19T00:14:14.400Z,19.80
2022-10-19T00:16:44.672Z,21.40
2022-10-19T00:19:18.705Z,20.10
2022-10-19T00:21:47.024Z,22.00
2022-10-19T00:24:15.127Z,21.40
2022-10-19T00:26:43.204Z,20.70
2022-10-19T00:29:13.663Z,22.10
2022-10-19T00:31:42.307Z,21.50
2022-10-19T00:34:10.356Z,21.80
2022-10-19T00:36:40.936Z,20.80
2022-10-19T00:39:13.275Z,21.30
2022-10-19T00:41:41.740Z,21.60
2022-10-19T00:44:12.663Z,21.50
2022-10-19T00:46:43.959Z,22.50
2022-10-19T00:49:22.190Z,23.50
2022-10-19T00:51:55.960Z,21.70
2022-10-19T00:54:25.946Z,23.80
2022-10-19T00:56:57.428Z,22.30
2022-10-19T00:59:28.332Z,20.90
2022-10-19T01:01:56.401Z,21.80
2022-10-19T01:04:26.434Z,21.10
2022-10-19T01:06:54.799Z,17.20
2022-10-19T01:09:23.076Z,17.20
2022-10-19T01:11:59.876Z,17.60
2022-10-19T01:14:27.718Z,19.30
2022-10-19T01:17:13.536Z,19.00
2022-10-19T01:19:47.403Z,17.60
2022-10-19T01:22:40.262Z,16.50
2022-10-19T01:25:23.307Z,16.60
2022-10-19T01:28:03.371Z,18.40
2022-10-19T01:31:03.338Z,19.40
2022-10-19T01:33:52.731Z,18.90
2022-10-19T01:36:40.464Z,20.30
2022-10-19T01:39:10.406Z,20.90
2022-10-19T01:41:57.933Z,18.80
2022-10-19T01:44:42.219Z,20.10
2022-10-19T01:47:17.929Z,19.10
2022-10-19T01:49:56.844Z,18.70
2022-10-19T01:52:27.254Z,17.60
2022-10-19T01:54:58.416Z,17.10
2022-10-19T01:57:47.924Z,18.30
2022-10-19T02:00:17.278Z,17.20
2022-10-19T02:02:49.198Z,18.70
2022-10-19T02:05:21.917Z,17.80
2022-10-19T02:07:56.133Z,16.80
2022-10-19T02:10:25.783Z,18.40
2022-10-19T02:12:55.339Z,16.80
2022-10-19T02:15:26.852Z,18.60
2022-10-19T02:17:57.517Z,16.70
2022-10-19T02:20:28.247Z,16.70
2022-10-19T02:22:56.746Z,16.60
2022-10-19T02:25:25.480Z,16.00
2022-10-19T02:27:54.015Z,15.20
2022-10-19T02:30:22.425Z,15.70
2022-10-19T02:32:51.237Z,16.10
2022-10-19T02:35:19.379Z,14.50
2022-10-19T02:37:47.331Z,15.30
2022-10-19T02:40:15.421Z,14.80
2022-10-19T02:42:48.824Z,15.30
2022-10-19T02:45:26.104Z,13.70
2022-10-19T02:48:06.247Z,13.80
2022-10-19T02:50:34.478Z,14.00
2022-10-19T02:53:02.437Z,14.00
2022-10-19T02:55:31.297Z,14.80
2022-10-19T02:57:59.218Z,14.60
2022-10-19T03:00:27.089Z,14.40
2022-10-19T03:02:54.981Z,14.40
2022-10-19T03:05:22.976Z,15.60
2022-10-19T03:07:50.873Z,16.00
2022-10-19T03:10:18.721Z,15.40
2022-10-19T03:12:46.608Z,17.10
2022-10-19T03:15:17.987Z,17.70
2022-10-19T03:17:46.178Z,16.70
2022-10-19T03:20:13.978Z,17.30
2022-10-19T03:22:41.908Z,16.90
2022-10-19T03:25:09.873Z,17.10
2022-10-19T03:27:37.737Z,18.50
2022-10-19T03:30:05.977Z,17.20
2022-10-19T03:32:33.846Z,16.40
2022-10-19T03:35:01.845Z,17.20
2022-10-19T03:37:29.684Z,17.40
2022-10-19T03:39:57.680Z,15.20
2022-10-19T03:42:25.548Z,15.80
2022-10-19T03:44:53.355Z,16.10
2022-10-19T03:47:21.343Z,16.70
2022-10-19T03:49:50.495Z,15.40
2022-10-19T03:52:19.227Z,13.90
2022-10-19T03:54:50.288Z,14.50
2022-10-19T03:57:18.429Z,17.80
2022-10-19T03:59:46.370Z,16.40
2022-10-19T04:02:14.236Z,16.80
2022-10-19T04:04:42.215Z,17.30
2022-10-19T04:07:10.180Z,17.20
2022-10-19T04:09:38.146Z,16.30
2022-10-19T04:12:06.220Z,15.70
2022-10-19T04:14:52.532Z,15.90
2022-10-19T04:17:21.915Z,15.70
2022-10-19T04:19:49.819Z,15.90
2022-10-19T04:22:17.647Z,15.90
2022-10-19T04:24:45.627Z,16.50
2022-10-19T04:27:13.599Z,15.70
2022-10-19T04:29:41.566Z,16.60
2022-10-19T04:32:09.399Z,15.40
2022-10-19T04:34:39.920Z,15.90
2022-10-19T04:37:08.135Z,13.70
2022-10-19T04:39:39.635Z,15.80
2022-10-19T04:42:07.653Z,14.70
2022-10-19T04:44:35.630Z,14.10
2022-10-19T04:47:03.600Z,15.40
2022-10-19T04:49:31.670Z,14.20
2022-10-19T04:51:59.639Z,15.30
2022-10-19T04:54:27.813Z,14.70
2022-10-19T04:56:55.690Z,15.20
2022-10-19T04:59:23.596Z,14.10
2022-10-19T05:01:51.620Z,14.20
2022-10-19T05:04:19.481Z,15.10
2022-10-19T05:06:47.449Z,14.70
2022-10-19T05:09:15.421Z,14.80
2022-10-19T05:11:43.391Z,15.40
2022-10-19T05:14:11.467Z,15.30
2022-10-19T05:16:39.329Z,15.90
2022-10-19T05:19:07.615Z,16.40
2022-10-19T05:21:35.785Z,14.90
2022-10-19T05:24:04.091Z,16.50
2022-10-19T05:26:32.052Z,15.40
2022-10-19T05:29:04.548Z,16.70
2022-10-19T05:31:34.419Z,15.50
2022-10-19T05:34:04.368Z,14.80
2022-10-19T05:36:40.066Z,13.80
2022-10-19T05:39:16.437Z,15.00
2022-10-19T05:44:17.133Z,14.20
2022-10-19T05:46:45.993Z,14.60
2022-10-19T05:49:15.724Z,16.70
2022-10-19T05:51:44.392Z,15.50
2022-10-19T05:54:13.390Z,16.90
2022-10-19T05:56:42.505Z,17.10
2022-10-19T05:59:15.470Z,15.60
2022-10-19T06:01:43.677Z,15.40
2022-10-19T06:04:15.014Z,16.20
2022-10-19T06:06:43.575Z,16.50
2022-10-19T06:09:12.262Z,16.20
2022-10-19T06:11:42.075Z,17.10
2022-10-19T06:14:15.746Z,16.50
2022-10-19T06:16:46.281Z,17.00
2022-10-19T06:19:14.794Z,17.30
2022-10-19T06:21:45.812Z,17.20
2022-10-19T06:24:14.825Z,18.00
2022-10-19T06:26:42.992Z,18.50
2022-10-19T06:29:11.315Z,18.70
2022-10-19T06:31:39.445Z,18.40
2022-10-19T06:34:07.646Z,17.80
2022-10-19T06:36:35.694Z,18.40
2022-10-19T06:39:04.271Z,17.50
2022-10-19T06:41:32.860Z,15.90
2022-10-19T06:44:09.841Z,16.30
2022-10-19T06:46:38.631Z,15.80
2022-10-19T06:49:06.593Z,16.50
2022-10-19T06:51:34.672Z,16.70
2022-10-19T06:54:02.639Z,16.60
2022-10-19T06:56:30.611Z,16.70
2022-10-19T06:58:59.598Z,17.20
2022-10-19T07:01:27.528Z,17.50
2022-10-19T07:03:55.860Z,17.40
2022-10-19T07:06:24.430Z,18.00
2022-10-19T07:08:53.423Z,18.10
2022-10-19T07:11:22.672Z,18.10
2022-10-19T07:13:52.748Z,18.50
2022-10-19T07:16:21.760Z,18.20
2022-10-19T07:18:53.007Z,20.50
2022-10-19T07:21:23.317Z,19.40
2022-10-19T07:23:51.478Z,18.40
2022-10-19T07:26:27.277Z,18.30
2022-10-19T07:28:57.372Z,19.80
2022-10-19T07:31:27.585Z,20.60
2022-10-19T07:33:58.030Z,19.30
2022-10-19T07:36:27.715Z,20.30
2022-10-19T07:38:55.883Z,22.10
2022-10-19T07:41:26.053Z,21.20
2022-10-19T07:43:54.772Z,23.00
2022-10-19T07:46:25.835Z,22.60
2022-10-19T07:48:53.958Z,24.10
2022-10-19T07:51:22.806Z,26.00
2022-10-19T07:53:50.972Z,26.70
2022-10-19T07:56:24.674Z,28.60
2022-10-19T07:58:54.793Z,28.60
2022-10-19T08:01:25.937Z,28.50
2022-10-19T08:06:43.587Z,26.90
2022-10-19T08:09:27.652Z,26.70
2022-10-19T08:11:59.983Z,26.10
2022-10-19T08:14:27.979Z,26.10
2022-10-19T08:16:55.951Z,26.20
2022-10-19T08:19:24.534Z,24.60
2022-10-19T08:21:52.400Z,22.50
2022-10-19T08:24:20.883Z,24.50
2022-10-19T08:26:51.469Z,22.40
2022-10-19T08:29:21.201Z,23.60
2022-10-19T08:31:49.808Z,21.90
2022-10-19T08:34:18.285Z,23.40
2022-10-19T08:36:46.363Z,23.50
2022-10-19T08:39:14.743Z,24.00
2022-10-19T08:42:04.210Z,22.90
2022-10-19T08:44:47.238Z,21.30
2022-10-19T08:47:40.495Z,20.20
2022-10-19T08:50:25.363Z,21.90
2022-10-19T08:53:17.943Z,23.40
2022-10-19T08:56:04.812Z,25.20
2022-10-19T08:58:49.180Z,24.10
2022-10-19T09:01:40.054Z,26.40
2022-10-19T09:04:35.511Z,25.30
2022-10-19T09:07:30.395Z,24.30
2022-10-19T09:10:04.958Z,24.00
2022-10-19T09:12:42.111Z,25.00
2022-10-19T09:15:23.796Z,27.80
2022-10-19T09:17:51.865Z,25.30
2022-10-19T09:20:23.357Z,24.40
2022-10-19T09:23:28.864Z,22.40
2022-10-19T09:25:58.528Z,22.70
2022-10-19T09:28:44.994Z,23.60
2022-10-19T09:31:31.628Z,22.30
2022-10-19T09:34:21.063Z,22.90
2022-10-19T09:36:59.455Z,21.40
2022-10-19T09:39:29.971Z,21.40
2022-10-19T09:42:04.135Z,21.60
2022-10-19T09:44:32.601Z,21.70
2022-10-19T09:47:32.087Z,20.90
2022-10-19T09:50:27.316Z,21.00
2022-10-19T09:52:59.379Z,21.20
2022-10-19T09:55:29.194Z,20.60
2022-10-19T09:58:21.229Z,19.80
2022-10-19T10:00:52.096Z,20.10
2022-10-19T10:03:29.566Z,21.20
2022-10-19T10:06:10.650Z,20.00
2022-10-19T10:08:46.234Z,18.00
2022-10-19T10:11:23.776Z,18.50
2022-10-19T10:13:54.447Z,18.20
2022-10-19T10:16:29.365Z,18.00
2022-10-19T10:18:59.254Z,17.10
2022-10-19T10:21:34.789Z,17.60
2022-10-19T10:24:10.525Z,16.30
2022-10-19T10:26:50.613Z,19.00
2022-10-19T10:29:20.159Z,18.40
2022-10-19T10:32:03.440Z,19.30
2022-10-19T10:34:58.527Z,19.80
2022-10-19T10:37:39.022Z,18.50
2022-10-19T10:40:28.687Z,16.10
2022-10-19T10:43:02.417Z,15.30
2022-10-19T10:45:39.731Z,16.20
2022-10-19T10:48:14.716Z,15.30
2022-10-19T10:50:44.022Z,15.50
2022-10-19T10:53:33.695Z,14.80
2022-10-19T10:56:01.667Z,15.40
2022-10-19T10:58:48.530Z,16.10
2022-10-19T11:01:22.029Z,15.90
2022-10-19T11:03:57.355Z,16.40
2022-10-19T11:06:26.736Z,17.70
2022-10-19T11:09:11.894Z,17.20
2022-10-19T11:11:44.992Z,18.30
2022-10-19T11:14:34.966Z,18.10
2022-10-19T11:17:07.824Z,17.60
2022-10-19T11:19:35.655Z,17.70
2022-10-19T11:22:35.988Z,17.80
2022-10-19T11:25:43.442Z,19.10
2022-10-19T11:28:43.668Z,17.30
2022-10-19T11:31:47.578Z,18.20
2022-10-19T11:34:37.255Z,17.90
2022-10-19T11:37:30.418Z,18.20
2022-10-19T11:40:31.550Z,18.40
2022-10-19T11:42:59.540Z,18.00
2022-10-19T11:45:51.838Z,18.30
2022-10-19T11:48:25.515Z,18.60
2022-10-19T11:51:17.364Z,17.50
2022-10-19T11:54:14.952Z,17.70
2022-10-19T11:57:15.303Z,16.30
2022-10-19T12:00:14.440Z,15.20
2022-10-19T12:03:19.548Z,15.80
2022-10-19T12:06:08.204Z,17.00
2022-10-19T12:08:53.781Z,15.70
2022-10-19T12:11:39.165Z,15.50
2022-10-19T12:14:15.007Z,15.40
2022-10-19T12:16:47.606Z,15.20
2022-10-19T12:19:47.096Z,12.80
2022-10-19T12:22:23.984Z,11.70
2022-10-19T12:24:55.558Z,12.60
2022-10-19T12:27:33.734Z,12.20
2022-10-19T12:30:08.447Z,11.50
2022-10-19T12:33:14.938Z,12.10
2022-10-19T12:36:01.451Z,12.70
2022-10-19T12:38:50.728Z,11.60
2022-10-19T12:41:26.230Z,12.30
2022-10-19T12:44:21.119Z,11.00
2022-10-19T12:47:01.054Z,12.30
2022-10-19T12:49:29.184Z,12.30
2022-10-19T12:51:59.714Z,13.00
2022-10-19T12:54:33.517Z,11.70
2022-10-19T12:57:04.431Z,11.40
2022-10-19T12:59:35.600Z,11.50
2022-10-19T13:02:24.704Z,11.00
2022-10-19T13:04:57.180Z,11.50
2022-10-19T13:07:33.130Z,10.30
2022-10-19T13:10:07.754Z,10.30
2022-10-19T13:12:46.244Z,10.90
2022-10-19T13:15:33.462Z,11.00
2022-10-19T13:18:12.500Z,10.60
2022-10-19T13:23:13.467Z,14.20
2022-10-19T13:25:42.767Z,11.40
2022-10-19T13:28:10.917Z,11.00
2022-10-19T13:30:38.899Z,11.00
2022-10-19T13:33:25.601Z,11.50
2022-10-19T13:35:59.776Z,10.40
2022-10-19T13:39:08.742Z,9.60
2022-10-19T13:41:36.613Z,9.00
2022-10-19T13:44:14.243Z,9.20
2022-10-19T13:46:45.346Z,9.80
2022-10-19T13:49:22.943Z,9.20
2022-10-19T13:52:20.057Z,10.70
2022-10-19T13:55:03.123Z,10.40
2022-10-19T13:57:55.315Z,10.20
2022-10-19T14:00:46.992Z,9.50
2022-10-19T14:03:26.633Z,10.80
2022-10-19T14:06:17.449Z,9.70
2022-10-19T14:09:16.946Z,10.30
2022-10-19T14:11:48.492Z,9.70
2022-10-19T14:14:23.429Z,8.80
2022-10-19T14:16:59.882Z,8.90
2022-10-19T14:19:45.711Z,8.40
2022-10-19T14:22:21.636Z,7.70
2022-10-19T14:24:49.611Z,8.00
2022-10-19T14:27:24.697Z,8.10
2022-10-19T14:29:54.366Z,8.30
2022-10-19T14:32:28.248Z,8.30
2022-10-19T14:37:33.480Z,8.60
2022-10-19T14:40:24.791Z,9.00
2022-10-19T14:42:58.036Z,9.40
2022-10-19T14:45:30.079Z,9.80
2022-10-19T14:47:57.960Z,9.40
2022-10-19T14:50:55.010Z,9.20
2022-10-19T14:53:44.774Z,10.20
2022-10-19T14:56:18.905Z,9.90
2022-10-19T14:58:58.145Z,9.70
2022-10-19T15:01:26.782Z,10.10
2022-10-19T15:03:55.717Z,10.50
2022-10-19T15:06:27.665Z,10.60
2022-10-19T15:09:00.363Z,11.00
2022-10-19T15:11:36.725Z,11.40
2022-10-19T15:14:15.549Z,11.30
2022-10-19T15:17:00.932Z,11.20
2022-10-19T15:19:37.709Z,10.60
2022-10-19T15:22:36.953Z,11.30
2022-10-19T15:25:08.052Z,11.40
2022-10-19T15:27:40.282Z,11.30
2022-10-19T15:30:17.405Z,10.80
2022-10-19T15:32:47.732Z,12.30
2022-10-19T15:35:27.783Z,13.50
2022-10-19T15:38:23.408Z,13.10
2022-10-19T15:40:58.395Z,12.60
2022-10-19T15:43:35.424Z,13.10
2022-10-19T15:46:05.026Z,11.90
2022-10-19T15:48:41.795Z,11.40
2022-10-19T15:51:24.849Z,12.20
2022-10-19T15:53:52.900Z,12.00
2022-10-19T15:56:22.405Z,12.90
2022-10-19T15:58:52.108Z,13.30
2022-10-19T16:01:24.626Z,13.50
2022-10-19T16:03:54.810Z,11.90
2022-10-19T16:06:28.921Z,11.50
2022-10-19T16:08:58.859Z,13.50
2022-10-19T16:11:29.061Z,14.20
2022-10-19T16:13:56.994Z,14.60
2022-10-19T16:16:30.999Z,13.50
2022-10-19T16:19:00.235Z,13.20
2022-10-19T16:21:31.732Z,13.40
2022-10-19T16:24:00.099Z,13.50
2022-10-19T16:26:28.542Z,15.40
2022-10-19T16:28:56.622Z,15.80
2022-10-19T16:31:24.689Z,16.00
2022-10-19T16:33:55.783Z,14.10
2022-10-19T16:36:25.735Z,13.40
2022-10-19T16:38:53.819Z,14.90
2022-10-19T16:41:21.895Z,14.60
2022-10-19T16:43:54.777Z,14.20
2022-10-19T16:46:24.593Z,13.10
2022-10-19T16:48:53.376Z,13.30
2022-10-19T16:51:34.252Z,12.90
2022-10-19T16:54:05.293Z,14.10
2022-10-19T16:56:34.320Z,13.60
2022-10-19T16:59:05.208Z,13.80
2022-10-19T17:01:35.099Z,12.50
2022-10-19T17:04:03.428Z,13.90
2022-10-19T17:06:33.022Z,12.90
2022-10-19T17:11:49.150Z,13.70
2022-10-19T17:14:17.330Z,12.90
2022-10-19T17:16:45.279Z,13.70
2022-10-19T17:19:13.450Z,13.50
2022-10-19T17:21:42.604Z,14.70
2022-10-19T17:24:21.100Z,15.20
2022-10-19T17:26:51.955Z,14.50
2022-10-19T17:29:21.517Z,15.50
2022-10-19T17:31:49.856Z,16.80
2022-10-19T17:34:18.267Z,14.00
2022-10-19T17:36:46.964Z,15.10
2022-10-19T17:39:27.233Z,16.40
2022-10-19T17:42:02.075Z,16.40
2022-10-19T17:44:31.699Z,16.60
2022-10-19T17:47:00.934Z,15.90
2022-10-19T17:49:30.181Z,15.90
2022-10-19T17:51:58.741Z,16.90
2022-10-19T17:54:26.813Z,17.20
2022-10-19T17:56:54.984Z,16.70
2022-10-19T17:59:34.806Z,16.50
2022-10-19T18:02:10.998Z,16.90
2022-10-19T18:04:39.171Z,18.70
2022-10-19T18:07:07.029Z,18.40
2022-10-19T18:09:35.103Z,16.20
2022-10-19T18:12:06.385Z,14.50
2022-10-19T18:14:35.653Z,14.40
2022-10-19T18:17:03.619Z,13.60
2022-10-19T18:19:32.097Z,13.30
2022-10-19T18:22:00.073Z,13.80
2022-10-19T18:24:28.403Z,13.90
2022-10-19T18:26:56.736Z,13.90
2022-10-19T18:29:26.260Z,13.60
2022-10-19T18:31:55.219Z,13.00
2022-10-19T18:34:26.175Z,13.10
2022-10-19T18:36:55.001Z,12.80
2022-10-19T18:39:23.236Z,13.30
2022-10-19T18:41:54.599Z,12.10
2022-10-19T18:44:27.241Z,12.10
2022-10-19T18:46:57.908Z,11.70
2022-10-19T18:49:25.978Z,11.00
2022-10-19T18:51:55.786Z,11.80
2022-10-19T18:54:26.637Z,11.60
2022-10-19T18:56:55.444Z,11.60
2022-10-19T18:59:23.749Z,12.00
2022-10-19T19:01:52.314Z,12.90
2022-10-19T19:04:20.433Z,12.20
2022-10-19T19:06:48.401Z,12.20
2022-10-19T19:09:17.623Z,12.40
2022-10-19T19:11:45.983Z,11.50
2022-10-19T19:14:17.213Z,12.40
2022-10-19T19:16:45.798Z,11.80
2022-10-19T19:19:16.038Z,10.60
2022-10-19T19:21:45.056Z,11.10
2022-10-19T19:24:17.045Z,11.30
2022-10-19T19:26:49.564Z,11.10
2022-10-19T19:29:18.363Z,11.20
2022-10-19T19:31:47.981Z,11.10
2022-10-19T19:34:16.156Z,11.00
2022-10-19T19:36:48.360Z,10.50
2022-10-19T19:39:20.671Z,10.60
2022-10-19T19:41:50.201Z,10.80
2022-10-19T19:44:18.558Z,9.90
2022-10-19T19:46:46.541Z,10.50
2022-10-19T19:49:14.506Z,10.40
2022-10-19T19:51:42.896Z,9.70
2022-10-19T19:54:12.503Z,10.50
2022-10-19T19:56:42.440Z,9.70
2022-10-19T19:59:12.522Z,10.70
2022-10-19T20:01:41.015Z,10.50
2022-10-19T20:04:10.024Z,9.80
2022-10-19T20:06:39.409Z,10.10
2022-10-19T20:09:08.549Z,10.00
2022-10-19T20:11:41.257Z,10.00
2022-10-19T20:14:12.104Z,9.90
2022-10-19T20:16:40.085Z,9.50
2022-10-19T20:19:11.587Z,10.20
2022-10-19T20:21:40.335Z,10.50
2022-10-19T20:24:08.729Z,9.30
2022-10-19T20:26:36.886Z,9.70
2022-10-19T20:29:05.618Z,10.10
2022-10-19T20:31:39.361Z,9.40
2022-10-19T20:34:14.050Z,9.30
2022-10-19T20:36:43.095Z,9.10
2022-10-19T20:39:11.165Z,9.00
2022-10-19T20:41:39.545Z,9.10
2022-10-19T20:44:07.719Z,9.40
2022-10-19T20:46:37.328Z,9.00
2022-10-19T20:49:05.610Z,8.90
2022-10-19T20:51:36.882Z,8.70
2022-10-19T20:54:12.344Z,8.30
2022-10-19T20:56:41.806Z,8.70
2022-10-19T20:59:16.046Z,8.10
2022-10-19T21:01:45.964Z,8.20
2022-10-19T21:04:15.497Z,8.40
2022-10-19T21:06:46.710Z,7.90
2022-10-19T21:09:18.781Z,7.60
2022-10-19T21:11:48.347Z,7.50
2022-10-19T21:14:25.306Z,7.20
2022-10-19T21:16:58.620Z,7.60
2022-10-19T21:19:28.803Z,7.10
2022-10-19T21:22:01.995Z,7.50
2022-10-19T21:24:33.294Z,7.60
2022-10-19T21:27:05.316Z,7.40
2022-10-19T21:29:34.049Z,7.00
2022-10-19T21:32:02.952Z,7.10
2022-10-19T21:34:32.153Z,7.10
2022-10-19T21:37:00.314Z,6.70
2022-10-19T21:39:28.791Z,6.40
2022-10-19T21:41:57.133Z,6.70
2022-10-19T21:44:25.164Z,6.20
2022-10-19T21:46:53.204Z,6.40
2022-10-19T21:49:21.070Z,6.00
2022-10-19T21:51:52.324Z,5.70
2022-10-19T21:54:24.680Z,6.00
2022-10-19T21:56:53.505Z,5.70
2022-10-19T21:59:21.660Z,6.00
2022-10-19T22:01:49.645Z,5.80
2022-10-19T22:04:18.636Z,5.80
2022-10-19T22:06:46.688Z,5.80
2022-10-19T22:09:19.368Z,5.80
2022-10-19T22:11:47.852Z,5.70
2022-10-19T22:14:16.750Z,5.80
2022-10-19T22:16:45.120Z,6.00
2022-10-19T22:19:13.811Z,6.00
2022-10-19T22:21:41.653Z,6.20
2022-10-19T22:24:14.052Z,5.60
2022-10-19T22:26:45.536Z,5.70
2022-10-19T22:29:13.880Z,6.30
2022-10-19T22:31:41.842Z,5.90
2022-10-19T22:34:13.401Z,6.20
2022-10-19T22:36:41.448Z,6.20
2022-10-19T22:39:09.851Z,6.20
2022-10-19T22:41:37.678Z,6.30
2022-10-19T22:44:05.887Z,6.10
2022-10-19T22:46:33.759Z,6.60
2022-10-19T22:49:01.601Z,6.30
2022-10-19T22:51:30.001Z,6.30
2022-10-19T22:53:57.869Z,6.20
2022-10-19T22:56:25.736Z,5.90
2022-10-19T22:58:53.606Z,6.20
2022-10-19T23:01:21.533Z,5.50
2022-10-19T23:03:49.440Z,5.50
2022-10-19T23:06:17.272Z,5.40
2022-10-19T23:08:45.912Z,4.90
2022-10-19T23:11:15.002Z,5.10
2022-10-19T23:13:43.264Z,4.90
2022-10-19T23:16:11.288Z,4.60
2022-10-19T23:18:41.049Z,4.40
2022-10-19T23:21:12.746Z,4.10
2022-10-19T23:23:41.401Z,4.20
2022-10-19T23:26:19.495Z,4.30
2022-10-19T23:28:49.923Z,4.20
2022-10-19T23:31:21.169Z,4.00
2022-10-19T23:33:49.037Z,4.00
2022-10-19T23:36:21.037Z,3.70
2022-10-19T23:38:50.490Z,3.80
2022-10-19T23:41:19.627Z,4.70
2022-10-19T23:43:48.068Z,4.00
2022-10-19T23:46:15.948Z,4.10
2022-10-19T23:48:44.020Z,3.80
2022-10-19T23:51:14.882Z,3.90
2022-10-19T23:53:44.878Z,3.90
2022-10-19T23:56:30.199Z,4.00
2022-10-19T23:58:58.027Z,3.70
